createdAt,value
2023-03-07T00:02:21.435Z,5.32
2023-03-07T00:07:15.196Z,5.70
2023-03-07T00:12:09.556Z,5.75
2023-03-07T00:17:03.508Z,6.40
2023-03-07T00:21:57.778Z,6.45
2023-03-07T00:26:51.666Z,5.95
2023-03-07T00:31:44.441Z,5.05
2023-03-07T00:36:38.969Z,6.25
2023-03-07T00:41:31.471Z,6.65
2023-03-07T00:46:26.170Z,5.38
2023-03-07T00:51:20.692Z,5.80
2023-03-07T00:56:16.987Z,4.90
2023-03-07T01:01:12.394Z,5.03
2023-03-07T01:06:08.994Z,5.72
2023-03-07T01:11:03.628Z,5.38
2023-03-07T01:15:56.852Z,5.82
2023-03-07T01:20:49.968Z,5.68
2023-03-07T01:25:43.425Z,4.63
2023-03-07T01:30:37.684Z,5.75
2023-03-07T01:35:30.059Z,5.82
2023-03-07T01:40:24.640Z,6.57
2023-03-07T01:45:34.653Z,5.80
2023-03-07T01:50:28.292Z,5.30
2023-03-07T01:55:25.235Z,6.07
2023-03-07T02:00:29.949Z,4.85
2023-03-07T02:05:27.347Z,5.10
2023-03-07T02:10:22.996Z,5.88
2023-03-07T02:15:17.330Z,6.25
2023-03-07T02:20:36.819Z,5.75
2023-03-07T02:25:36.580Z,10.68
2023-03-07T02:30:30.349Z,10.30
2023-03-07T02:35:26.310Z,10.95
2023-03-07T02:40:25.378Z,11.70
2023-03-07T02:45:19.717Z,12.00
2023-03-07T02:50:13.690Z,9.15
2023-03-07T02:55:11.077Z,9.73
2023-03-07T03:00:10.763Z,9.63
2023-03-07T03:05:04.683Z,9.90
2023-03-07T03:09:58.732Z,10.93
2023-03-07T03:14:51.369Z,12.93
2023-03-07T03:19:43.822Z,12.30
2023-03-07T03:24:41.362Z,13.48
2023-03-07T03:29:35.672Z,14.63
2023-03-07T03:34:31.102Z,13.70
2023-03-07T03:39:24.055Z,15.15
2023-03-07T03:44:22.521Z,16.17
2023-03-07T03:49:18.167Z,18.02
2023-03-07T03:54:14.228Z,16.42
2023-03-07T03:59:08.536Z,18.33
2023-03-07T04:04:01.369Z,17.65
2023-03-07T04:08:55.660Z,18.13
2023-03-07T04:13:48.852Z,16.48
2023-03-07T04:18:43.281Z,18.23
2023-03-07T04:23:37.158Z,14.02
2023-03-07T04:28:49.600Z,11.05
2023-03-07T04:33:54.031Z,10.45
2023-03-07T04:38:48.755Z,11.85
2023-03-07T04:43:42.234Z,8.60
2023-03-07T04:48:37.076Z,9.98
2023-03-07T04:53:30.025Z,8.68
2023-03-07T04:58:24.250Z,7.28
2023-03-07T05:03:17.831Z,8.35
2023-03-07T05:08:11.656Z,9.00
2023-03-07T05:13:05.129Z,9.35
2023-03-07T05:17:58.486Z,11.93
2023-03-07T05:22:52.926Z,11.82
2023-03-07T05:27:46.186Z,12.02
2023-03-07T05:32:39.225Z,9.73
2023-03-07T05:37:33.106Z,10.63
2023-03-07T05:42:26.598Z,10.35
2023-03-07T05:47:20.244Z,10.05
2023-03-07T05:52:13.527Z,10.88
2023-03-07T05:57:07.931Z,10.25
2023-03-07T06:02:01.328Z,9.07
2023-03-07T06:06:55.351Z,9.63
2023-03-07T06:11:48.305Z,11.52
2023-03-07T06:16:41.625Z,12.00
2023-03-07T06:21:35.270Z,13.38
2023-03-07T06:26:29.158Z,11.32
2023-03-07T06:31:22.378Z,12.13
2023-03-07T06:36:17.789Z,16.02
2023-03-07T06:41:14.834Z,13.30
2023-03-07T06:46:09.782Z,15.82
2023-03-07T06:51:10.419Z,15.60
2023-03-07T06:56:07.320Z,13.43
2023-03-07T07:01:02.268Z,10.43
2023-03-07T07:05:56.686Z,11.35
2023-03-07T07:10:50.335Z,15.52
2023-03-07T07:15:45.138Z,13.02
2023-03-07T07:20:39.182Z,13.82
2023-03-07T07:25:32.158Z,12.80
2023-03-07T07:30:25.265Z,9.98
2023-03-07T07:35:18.736Z,10.65
2023-03-07T07:40:15.672Z,9.68
2023-03-07T07:45:12.876Z,13.40
2023-03-07T07:50:06.661Z,12.05
2023-03-07T07:55:01.826Z,8.52
2023-03-07T07:59:54.958Z,8.02
2023-03-07T08:04:48.402Z,7.55
2023-03-07T08:09:41.616Z,9.10
2023-03-07T08:14:36.023Z,7.68
2023-03-07T08:19:29.127Z,7.22
2023-03-07T08:24:29.375Z,6.95
2023-03-07T08:29:33.400Z,7.68
2023-03-07T08:34:27.287Z,8.45
2023-03-07T08:39:21.319Z,6.85
2023-03-07T08:44:14.292Z,6.72
2023-03-07T08:49:07.111Z,5.53
2023-03-07T08:54:00.311Z,5.85
2023-03-07T08:58:54.361Z,4.88
2023-03-07T09:03:47.134Z,4.10
2023-03-07T09:08:40.518Z,5.22
2023-03-07T09:13:42.960Z,4.25
2023-03-07T09:18:43.484Z,4.07
2023-03-07T09:23:37.526Z,4.55
2023-03-07T09:28:31.012Z,4.35
2023-03-07T09:33:23.401Z,4.20
2023-03-07T09:38:16.575Z,4.00
2023-03-07T09:43:12.229Z,5.20
2023-03-07T09:48:23.473Z,4.85
2023-03-07T09:53:38.184Z,6.38
2023-03-07T09:58:34.167Z,4.13
2023-03-07T10:03:34.156Z,4.18
2023-03-07T10:08:33.889Z,4.13
2023-03-07T10:13:45.800Z,3.95
2023-03-07T10:18:58.993Z,4.93
2023-03-07T10:24:25.327Z,4.50
2023-03-07T10:29:20.844Z,4.75
2023-03-07T10:34:32.866Z,3.87
2023-03-07T10:39:36.562Z,4.90
2023-03-07T10:44:33.875Z,3.83
2023-03-07T10:49:37.680Z,3.70
2023-03-07T10:54:35.469Z,4.53
2023-03-07T10:59:28.598Z,3.85
2023-03-07T11:04:24.982Z,3.13
2023-03-07T11:09:24.095Z,2.77
2023-03-07T11:14:18.842Z,3.13
2023-03-07T11:19:33.786Z,3.47
2023-03-07T11:24:49.352Z,3.10
2023-03-07T11:29:42.501Z,3.42
2023-03-07T11:34:47.259Z,3.40
2023-03-07T11:40:08.710Z,3.08
2023-03-07T11:45:08.993Z,3.35
2023-03-07T11:50:20.563Z,2.20
2023-03-07T11:55:38.786Z,2.53
2023-03-07T12:00:53.038Z,3.50
2023-03-07T12:06:15.338Z,2.55
2023-03-07T12:11:23.722Z,3.22
2023-03-07T12:16:31.581Z,2.47
2023-03-07T12:21:39.339Z,2.33
2023-03-07T12:26:58.750Z,2.60
2023-03-07T12:31:55.170Z,2.45
2023-03-07T12:36:50.945Z,2.60
2023-03-07T12:42:06.767Z,2.78
2023-03-07T12:47:07.945Z,2.50
2023-03-07T12:52:03.289Z,3.90
2023-03-07T12:57:01.646Z,3.80
2023-03-07T13:02:04.197Z,2.90
2023-03-07T13:07:11.224Z,3.58
2023-03-07T13:12:30.751Z,3.53
2023-03-07T13:17:32.222Z,3.00
2023-03-07T13:22:25.312Z,2.90
2023-03-07T13:27:27.797Z,3.00
2023-03-07T13:32:49.269Z,4.18
2023-03-07T13:38:23.942Z,3.75
2023-03-07T13:43:19.323Z,3.65
2023-03-07T13:48:25.348Z,3.78
2023-03-07T13:53:38.437Z,3.63
2023-03-07T13:58:34.884Z,3.08
2023-03-07T14:03:39.945Z,4.55
2023-03-07T14:08:35.416Z,4.00
2023-03-07T14:13:42.617Z,2.95
2023-03-07T14:18:47.295Z,3.38
2023-03-07T14:24:04.333Z,3.38
2023-03-07T14:29:02.631Z,3.55
2023-03-07T14:33:55.324Z,3.60
2023-03-07T14:38:49.353Z,4.13
2023-03-07T14:43:49.129Z,3.30
2023-03-07T14:49:16.250Z,2.90
2023-03-07T14:54:16.160Z,3.60
2023-03-07T14:59:14.219Z,3.50
2023-03-07T15:04:25.213Z,3.40
2023-03-07T15:09:19.142Z,3.03
2023-03-07T15:14:15.978Z,3.20
2023-03-07T15:19:20.911Z,3.72
2023-03-07T15:24:23.690Z,2.90
2023-03-07T15:29:17.586Z,3.30
2023-03-07T15:34:31.464Z,3.40
2023-03-07T15:39:34.748Z,3.63
2023-03-07T15:44:29.235Z,3.58
2023-03-07T15:49:42.918Z,3.58
2023-03-07T15:54:39.464Z,3.35
2023-03-07T15:59:35.758Z,3.45
2023-03-07T16:04:37.914Z,2.95
2023-03-07T16:09:31.912Z,3.00
2023-03-07T16:14:45.039Z,3.22
2023-03-07T16:19:39.045Z,2.22
2023-03-07T16:24:32.569Z,2.20
2023-03-07T16:29:26.096Z,2.13
2023-03-07T16:34:21.573Z,2.05
2023-03-07T16:39:15.633Z,1.63
2023-03-07T16:44:08.380Z,1.80
2023-03-07T16:49:02.605Z,2.40
2023-03-07T16:53:57.480Z,1.75
2023-03-07T16:58:50.750Z,2.13
2023-03-07T17:03:43.286Z,2.92
2023-03-07T17:08:37.034Z,2.75
2023-03-07T17:13:29.975Z,3.97
2023-03-07T17:18:23.002Z,4.13
2023-03-07T17:23:16.227Z,4.13
2023-03-07T17:28:13.853Z,4.53
2023-03-07T17:33:07.143Z,3.55
2023-03-07T17:37:59.973Z,6.50
2023-03-07T17:42:55.685Z,3.50
2023-03-07T17:47:51.958Z,3.75
2023-03-07T17:52:45.355Z,4.28
2023-03-07T17:57:38.953Z,9.30
2023-03-07T18:02:32.900Z,6.28
2023-03-07T18:07:25.703Z,3.58
2023-03-07T18:12:18.564Z,3.72
2023-03-07T18:17:11.899Z,4.05
2023-03-07T18:22:04.952Z,7.30
2023-03-07T18:27:02.402Z,4.15
2023-03-07T18:31:55.918Z,4.75
2023-03-07T18:36:51.732Z,5.97
2023-03-07T18:41:43.910Z,9.35
2023-03-07T18:46:37.385Z,8.30
2023-03-07T18:51:29.614Z,4.50
2023-03-07T18:56:22.998Z,7.35
2023-03-07T19:01:27.947Z,9.27
2023-03-07T19:06:22.519Z,9.30
2023-03-07T19:11:15.943Z,8.85
2023-03-07T19:16:15.000Z,6.30
2023-03-07T19:21:08.656Z,7.60
2023-03-07T19:26:06.042Z,10.60
2023-03-07T19:30:58.990Z,6.55
2023-03-07T19:36:12.601Z,7.38
2023-03-07T19:41:06.837Z,6.90
2023-03-07T19:46:00.903Z,3.90
2023-03-07T19:50:55.166Z,4.00
2023-03-07T19:55:48.918Z,4.78
2023-03-07T20:00:43.666Z,4.45
2023-03-07T20:05:41.639Z,5.15
2023-03-07T20:10:35.139Z,4.60
2023-03-07T20:15:29.790Z,4.53
2023-03-07T20:20:23.630Z,5.53
2023-03-07T20:25:17.684Z,5.00
2023-03-07T20:30:13.271Z,4.95
2023-03-07T20:35:08.624Z,7.10
2023-03-07T20:40:04.627Z,9.00
2023-03-07T20:44:58.535Z,7.40
2023-03-07T20:49:51.923Z,7.68
2023-03-07T20:54:44.822Z,6.28
2023-03-07T20:59:38.015Z,5.55
2023-03-07T21:04:31.434Z,7.57
2023-03-07T21:09:24.855Z,7.82
2023-03-07T21:14:19.355Z,8.40
2023-03-07T21:19:12.312Z,11.00
2023-03-07T21:24:08.360Z,8.85
2023-03-07T21:29:04.725Z,13.55
2023-03-07T21:34:01.662Z,15.48
2023-03-07T21:38:56.405Z,15.07
2023-03-07T21:43:50.378Z,16.48
2023-03-07T21:48:43.796Z,17.73
2023-03-07T21:53:37.367Z,11.27
2023-03-07T21:58:30.702Z,9.43
2023-03-07T22:03:27.671Z,10.13
2023-03-07T22:08:21.672Z,9.73
2023-03-07T22:13:15.351Z,12.35
2023-03-07T22:18:08.391Z,10.43
2023-03-07T22:23:01.168Z,10.70
2023-03-07T22:27:54.988Z,10.20
2023-03-07T22:32:49.238Z,9.77
2023-03-07T22:37:41.951Z,10.30
2023-03-07T22:42:36.280Z,10.80
2023-03-07T22:47:32.013Z,10.73
2023-03-07T22:52:25.765Z,12.65
2023-03-07T22:57:17.777Z,45.83
2023-03-07T23:02:11.000Z,20.83
2023-03-07T23:07:04.676Z,11.77
2023-03-07T23:11:58.374Z,12.38
2023-03-07T23:16:52.602Z,11.52
2023-03-07T23:21:46.448Z,10.75
2023-03-07T23:26:39.955Z,9.55
2023-03-07T23:31:38.304Z,9.40
2023-03-07T23:36:32.794Z,10.30
2023-03-07T23:41:26.359Z,10.48
2023-03-07T23:46:20.390Z,11.07
2023-03-07T23:51:13.586Z,10.57
2023-03-07T23:56:07.612Z,10.10
